Météo aviation pour un terrain ou une ville
Choisir un ou une

Vous pouvez entrer RAPIDEMENT les premières lettres pour sélectionner

Aéroport choisi : LFCK - CASTRES - MAZAMET
Visibilité




Soleil : Lever à 06:35 Coucher à 20:58
Durée du jour : 14h 23 (+3 minute(s))
Date et heure locale 09/05/2021 07:16
Il fait jour
Distance Terre - Lune : 404054 kms

Phase actuelle: Dernier croissant
Température
Pression
Humidité
Force du vent
Direction du vent
Temps présent
Ciel Clair

Ensoleillement : 100 %
Heure d'observation : 2021/05/09 07:00. Soit il y a 0 H 16 mn
Décodage METAR, TAF et désign par Philippe Guiraud
METAR : 2021/05/09 05:00 LFCK 090500Z AUTO 13031KT CAVOK 16/12 Q1008
Prévisions (décodage des TAF)
Pas de prévisions (TAF) pour cette station
Historique pour les derniéres 24 heures
Carte satellite actuelle
Satellite Image